Time;durP1;ratioP1;P1;durP2;ratioP2;P2;SDS_P1;SDS_P2;PMS_P1;PMS_P2;Temp;Humidity;BMP_temperature;BMP_pressure;BME280_temperature;BME280_humidity;BME280_pressure;Samples;Min_cycle;Max_cycle;Signal;HPM_P1;HPM_P2
2024/02/28 00:01:49;;;;;;;7.00;4.60;;;;;;;4.74;100.00;101307.72;5073731;28;20918;-69
2024/02/28 00:04:15;;;;;;;3.50;2.00;;;;;;;4.80;100.00;101312.09;5073082;28;20452;-69
2024/02/28 00:06:42;;;;;;;4.27;2.57;;;;;;;4.79;100.00;101323.91;5073496;28;20477;-69
2024/02/28 00:09:08;;;;;;;5.73;2.20;;;;;;;4.77;100.00;101314.44;5073506;28;20433;-69
2024/02/28 00:11:35;;;;;;;5.10;2.60;;;;;;;4.79;100.00;101321.22;5073414;28;20869;-69
2024/02/28 00:14:02;;;;;;;5.43;2.17;;;;;;;4.72;100.00;101317.88;5073845;28;20532;-69
2024/02/28 00:16:28;;;;;;;6.83;3.80;;;;;;;4.76;100.00;101316.31;5073767;28;20445;-69
2024/02/28 00:18:57;;;;;;;4.73;2.23;;;;;;;4.77;100.00;101317.94;5073273;28;21023;-69
2024/02/28 00:21:23;;;;;;;6.90;2.93;;;;;;;4.70;100.00;101317.31;5073304;28;20441;-69
2024/02/28 00:23:50;;;;;;;6.50;2.87;;;;;;;4.77;100.00;101309.91;5073681;28;20499;-69
2024/02/28 00:26:17;;;;;;;7.30;3.47;;;;;;;4.85;100.00;101315.91;5073528;28;20469;-69
2024/02/28 00:28:43;;;;;;;5.93;1.80;;;;;;;4.90;100.00;101316.81;5073363;28;20486;-69
2024/02/28 00:31:10;;;;;;;3.00;1.40;;;;;;;4.81;100.00;101312.91;5073758;28;20451;-69
2024/02/28 00:33:36;;;;;;;12.67;3.87;;;;;;;4.81;100.00;101316.41;5073147;28;20552;-69
2024/02/28 00:36:05;;;;;;;5.60;3.20;;;;;;;4.90;100.00;101321.38;5073375;28;20429;-69
2024/02/28 00:38:32;;;;;;;13.57;3.03;;;;;;;4.90;100.00;101314.13;5073367;28;20444;-69
2024/02/28 00:40:58;;;;;;;6.60;3.03;;;;;;;4.91;100.00;101306.88;5073277;28;20441;-69
2024/02/28 00:43:25;;;;;;;8.33;4.50;;;;;;;4.90;100.00;101311.44;5073298;28;20463;-67
2024/02/28 00:45:52;;;;;;;7.60;3.27;;;;;;;4.78;100.00;101306.19;5073086;28;20439;-67
2024/02/28 00:48:18;;;;;;;5.87;2.27;;;;;;;4.77;100.00;101307.22;5073122;28;20532;-67
2024/02/28 00:50:45;;;;;;;8.20;2.90;;;;;;;4.79;100.00;101304.31;5073432;28;20528;-67
2024/02/28 00:53:13;;;;;;;4.73;2.13;;;;;;;4.80;100.00;101303.25;5072772;28;20453;-69
2024/02/28 00:55:40;;;;;;;3.83;2.17;;;;;;;4.83;100.00;101313.50;5072919;22;20609;-69
2024/02/28 00:58:06;;;;;;;7.70;4.07;;;;;;;4.80;100.00;101311.28;5053001;28;20511;-69
2024/02/28 01:00:33;;;;;;;5.10;3.00;;;;;;;4.84;100.00;101314.31;5053237;28;20488;-69
2024/02/28 01:03:03;;;;;;;4.87;2.63;;;;;;;4.73;100.00;101310.63;5052903;28;20895;-69
2024/02/28 01:05:30;;;;;;;3.30;1.57;;;;;;;4.68;100.00;101314.03;5053631;28;20535;-69
2024/02/28 01:07:56;;;;;;;4.77;2.23;;;;;;;4.75;100.00;101313.91;5052863;28;20517;-69
2024/02/28 01:10:24;;;;;;;6.23;3.20;;;;;;;4.71;100.00;101313.56;5052913;28;20517;-69
2024/02/28 01:12:51;;;;;;;5.90;3.13;;;;;;;4.68;100.00;101308.69;5052511;28;20965;-69
2024/02/28 01:15:18;;;;;;;4.27;2.50;;;;;;;4.63;100.00;101313.97;5053631;28;20534;-69
2024/02/28 01:17:44;;;;;;;4.70;2.40;;;;;;;4.70;100.00;101311.94;5057063;28;20480;-69
2024/02/28 01:20:12;;;;;;;7.50;1.80;;;;;;;4.74;100.00;101313.09;5056438;28;20536;-70
2024/02/28 01:22:38;;;;;;;3.87;1.50;;;;;;;4.86;100.00;101321.03;5056414;28;20540;-69
2024/02/28 01:25:06;;;;;;;5.37;2.17;;;;;;;4.86;100.00;101320.22;5056777;28;20533;-70
2024/02/28 01:27:34;;;;;;;7.40;2.77;;;;;;;4.92;100.00;101317.38;5056099;28;20446;-69
2024/02/28 01:30:01;;;;;;;10.20;3.33;;;;;;;4.95;100.00;101310.69;5056400;28;20434;-69
2024/02/28 01:32:29;;;;;;;4.50;2.03;;;;;;;4.92;100.00;101319.25;5056141;28;20558;-70
2024/02/28 01:34:56;;;;;;;10.60;2.70;;;;;;;4.92;100.00;101316.59;5055940;28;20489;-69
2024/02/28 01:37:22;;;;;;;3.60;1.90;;;;;;;4.84;100.00;101312.44;5055949;28;20452;-69
2024/02/28 01:39:49;;;;;;;7.23;3.80;;;;;;;4.84;100.00;101306.25;5056494;28;20521;-69
2024/02/28 01:42:15;;;;;;;7.10;3.10;;;;;;;4.81;100.00;101313.72;5056222;28;20461;-69
2024/02/28 01:44:46;;;;;;;7.20;3.57;;;;;;;4.87;100.00;101300.38;5056285;28;20521;-69
2024/02/28 01:47:13;;;;;;;7.77;2.27;;;;;;;4.84;100.00;101296.31;5056727;28;20510;-69
2024/02/28 01:49:40;;;;;;;7.33;2.63;;;;;;;4.78;100.00;101297.28;5056196;28;20521;-69
2024/02/28 01:52:07;;;;;;;4.87;2.30;;;;;;;4.75;100.00;101303.16;5055599;28;20538;-69
2024/02/28 01:54:35;;;;;;;4.97;2.87;;;;;;;4.81;100.00;101300.31;5055896;28;20454;-69
2024/02/28 01:57:03;;;;;;;8.67;2.50;;;;;;;4.88;100.00;101312.75;5056157;28;20438;-68
2024/02/28 01:59:31;;;;;;;4.47;2.37;;;;;;;4.87;100.00;101305.75;5056002;28;20573;-68
2024/02/28 02:01:59;;;;;;;8.80;2.40;;;;;;;4.92;100.00;101313.91;5055757;28;20465;-68
2024/02/28 02:04:26;;;;;;;6.10;3.43;;;;;;;4.94;100.00;101311.75;5055685;28;20449;-68
2024/02/28 02:06:54;;;;;;;4.77;2.90;;;;;;;4.97;100.00;101316.66;5056038;28;20442;-68
2024/02/28 02:09:20;;;;;;;3.60;1.50;;;;;;;4.99;100.00;101311.84;5066346;28;20422;-68
2024/02/28 02:11:47;;;;;;;4.33;2.13;;;;;;;4.98;100.00;101315.59;5059794;28;20438;-68
2024/02/28 02:14:14;;;;;;;3.07;1.43;;;;;;;4.88;100.00;101315.44;5055655;28;20527;-68
2024/02/28 02:16:41;;;;;;;6.23;2.83;;;;;;;4.92;100.00;101316.59;5056056;28;20450;-68
2024/02/28 02:19:10;;;;;;;5.50;3.03;;;;;;;4.99;100.00;101319.91;5055334;28;20527;-68
2024/02/28 02:21:50;;;;;;;9.60;1.70;;;;;;;4.95;100.00;101326.81;5055272;28;20446;-68
2024/02/28 02:24:18;;;;;;;4.83;2.57;;;;;;;4.92;100.00;101324.63;5055446;28;20429;-68
2024/02/28 02:26:46;;;;;;;5.63;1.40;;;;;;;4.95;100.00;101329.50;5055168;28;20477;-68
2024/02/28 02:29:13;;;;;;;5.50;2.73;;;;;;;4.96;100.00;101323.91;5055259;28;20450;-68
2024/02/28 02:31:40;;;;;;;5.20;2.30;;;;;;;4.89;100.00;101331.28;5055478;28;20470;-68
2024/02/28 02:34:07;;;;;;;3.53;1.60;;;;;;;4.85;100.00;101332.84;5055200;28;20525;-69
2024/02/28 02:36:33;;;;;;;3.30;2.30;;;;;;;4.75;100.00;101335.38;5055053;28;20824;-68
2024/02/28 02:39:00;;;;;;;3.03;1.43;;;;;;;4.66;100.00;101340.31;5055348;28;20524;-68
2024/02/28 02:41:28;;;;;;;2.30;0.97;;;;;;;4.73;100.00;101338.28;5055283;28;20572;-68
2024/02/28 02:43:54;;;;;;;4.00;1.30;;;;;;;4.83;100.00;101347.56;5054640;28;20541;-69
2024/02/28 02:46:21;;;;;;;6.03;2.20;;;;;;;4.83;100.00;101348.38;5055338;28;20537;-68
2024/02/28 02:48:48;;;;;;;5.37;1.77;;;;;;;4.86;100.00;101350.56;5054851;28;20553;-69
2024/02/28 02:51:14;;;;;;;3.90;1.13;;;;;;;4.89;100.00;101350.09;5054989;28;20441;-66
2024/02/28 02:53:41;;;;;;;3.50;1.53;;;;;;;4.91;100.00;101341.78;5054703;28;21008;-68
2024/02/28 02:56:08;;;;;;;3.83;2.23;;;;;;;4.92;100.00;101351.47;5054278;28;20942;-67
2024/02/28 02:58:36;;;;;;;9.57;3.50;;;;;;;4.88;100.00;101353.03;5054369;28;20474;-69
2024/02/28 03:01:03;;;;;;;4.67;2.33;;;;;;;4.87;100.00;101351.38;5054571;28;20521;-68
2024/02/28 03:03:29;;;;;;;4.37;1.73;;;;;;;4.85;100.00;101346.25;5054860;28;20462;-69
2024/02/28 03:05:57;;;;;;;5.43;2.43;;;;;;;4.84;100.00;101350.00;5054517;28;20516;-69
2024/02/28 03:08:24;;;;;;;3.60;1.70;;;;;;;4.84;100.00;101349.19;5054897;28;20466;-69
2024/02/28 03:10:50;;;;;;;7.73;2.90;;;;;;;4.86;100.00;101345.19;5054117;28;20442;-69
2024/02/28 03:13:18;;;;;;;6.30;1.40;;;;;;;4.89;100.00;101352.78;5054505;28;20541;-69
2024/02/28 03:15:46;;;;;;;7.50;2.37;;;;;;;4.89;100.00;101357.31;5054379;28;20804;-69
2024/02/28 03:18:13;;;;;;;3.20;1.57;;;;;;;4.92;100.00;101356.84;5054342;28;20474;-69
2024/02/28 03:20:39;;;;;;;2.87;1.47;;;;;;;4.92;100.00;101359.53;5054894;28;20482;-70
2024/02/28 03:23:06;;;;;;;14.47;1.73;;;;;;;4.92;100.00;101365.72;5054131;28;20836;-70
2024/02/28 03:25:33;;;;;;;2.93;1.40;;;;;;;4.93;100.00;101364.66;5054173;28;20818;-70
2024/02/28 03:28:01;;;;;;;6.43;2.90;;;;;;;4.97;100.00;101364.97;5054175;28;20449;-70
2024/02/28 03:30:27;;;;;;;5.07;2.17;;;;;;;5.00;100.00;101361.78;5054449;28;20443;-70
2024/02/28 03:32:55;;;;;;;7.60;1.73;;;;;;;5.00;100.00;101357.25;5053700;28;20989;-70
2024/02/28 03:35:22;;;;;;;5.43;2.70;;;;;;;4.98;100.00;101351.31;5054098;28;20969;-70
2024/02/28 03:37:48;;;;;;;5.63;1.37;;;;;;;4.94;100.00;101350.16;5053775;28;20452;-70
2024/02/28 03:40:15;;;;;;;2.00;0.93;;;;;;;4.90;100.00;101354.38;5053696;28;20569;-70
2024/02/28 03:42:42;;;;;;;3.97;1.57;;;;;;;4.90;100.00;101349.03;5053743;28;20465;-70
2024/02/28 03:45:09;;;;;;;4.70;1.83;;;;;;;4.90;100.00;101353.56;5053813;28;20442;-70
2024/02/28 03:47:36;;;;;;;2.63;1.47;;;;;;;4.86;100.00;101363.97;5053807;28;20439;-70
2024/02/28 03:50:04;;;;;;;3.97;1.30;;;;;;;4.84;100.00;101365.28;5053439;28;21013;-70
2024/02/28 03:52:31;;;;;;;1.90;0.63;;;;;;;4.86;100.00;101363.16;5053740;28;20497;-71
2024/02/28 03:54:58;;;;;;;5.20;2.07;;;;;;;4.83;100.00;101361.81;5053310;28;20549;-70
2024/02/28 03:57:24;;;;;;;4.67;1.43;;;;;;;4.81;100.00;101369.28;5053644;28;20436;-68
2024/02/28 03:59:51;;;;;;;5.00;1.90;;;;;;;4.87;100.00;101359.41;5053581;28;20520;-68
2024/02/28 04:02:17;;;;;;;5.07;1.60;;;;;;;4.93;100.00;101364.66;5053571;28;20515;-68
2024/02/28 04:04:44;;;;;;;3.20;1.30;;;;;;;4.92;100.00;101356.84;5053496;28;20434;-68
2024/02/28 04:07:12;;;;;;;4.50;2.57;;;;;;;4.88;100.00;101361.06;5053505;28;20473;-69
2024/02/28 04:09:39;;;;;;;4.43;2.33;;;;;;;4.87;100.00;101371.00;5053401;28;20448;-69
2024/02/28 04:12:06;;;;;;;14.20;1.93;;;;;;;4.82;100.00;101362.84;5053443;28;20498;-69
2024/02/28 04:14:32;;;;;;;3.43;0.97;;;;;;;4.77;100.00;101365.44;5053128;28;20470;-67
2024/02/28 04:16:59;;;;;;;3.80;1.50;;;;;;;4.75;100.00;101360.31;5053784;28;20434;-68
2024/02/28 04:19:26;;;;;;;5.63;3.00;;;;;;;4.76;100.00;101370.00;5053366;28;20537;-68
2024/02/28 04:21:52;;;;;;;4.40;2.20;;;;;;;4.79;100.00;101377.56;5053227;28;20478;-69
2024/02/28 04:24:20;;;;;;;4.30;2.13;;;;;;;4.72;100.00;101379.59;5054050;28;20531;-69
2024/02/28 04:26:47;;;;;;;3.77;2.10;;;;;;;4.67;100.00;101382.19;5052901;28;20877;-69
2024/02/28 04:29:14;;;;;;;2.97;1.47;;;;;;;4.64;100.00;101382.66;5053295;28;20865;-69
2024/02/28 04:31:40;;;;;;;6.77;1.40;;;;;;;4.65;100.00;101381.63;5053571;28;20923;-69
2024/02/28 04:34:07;;;;;;;4.80;2.27;;;;;;;4.71;100.00;101388.69;5053421;28;20914;-69
2024/02/28 04:36:34;;;;;;;5.50;1.43;;;;;;;4.66;100.00;101391.31;5053202;28;20789;-68
2024/02/28 04:39:01;;;;;;;7.30;2.23;;;;;;;4.69;100.00;101401.56;5053225;28;20945;-68
2024/02/28 04:41:29;;;;;;;5.13;1.97;;;;;;;4.73;100.00;101397.31;5053124;28;20482;-68
2024/02/28 04:43:56;;;;;;;6.77;2.00;;;;;;;4.79;100.00;101406.28;5052827;28;20497;-68
2024/02/28 04:46:22;;;;;;;4.60;1.90;;;;;;;4.85;100.00;101407.19;5053331;28;20446;-68
2024/02/28 04:48:49;;;;;;;3.90;1.37;;;;;;;4.86;100.00;101403.44;5052770;28;20934;-68
2024/02/28 04:51:17;;;;;;;4.07;2.10;;;;;;;4.77;100.00;101401.13;5056982;28;20449;-68
2024/02/28 04:53:44;;;;;;;3.03;1.27;;;;;;;4.86;100.00;101395.38;5056727;28;20953;-68
2024/02/28 04:56:11;;;;;;;3.40;2.00;;;;;;;4.85;100.00;101393.75;5056650;28;20828;-68
2024/02/28 04:58:39;;;;;;;3.77;1.87;;;;;;;4.83;100.00;101390.53;5056961;28;20526;-68
2024/02/28 05:01:05;;;;;;;4.17;2.33;;;;;;;4.77;100.00;101403.81;5057053;28;20481;-69
2024/02/28 05:03:32;;;;;;;13.30;2.40;;;;;;;4.76;100.00;101412.13;5056820;28;20549;-69
2024/02/28 05:05:58;;;;;;;4.90;1.37;;;;;;;4.83;100.00;101425.41;5056816;28;20442;-69
2024/02/28 05:08:27;;;;;;;3.07;1.70;;;;;;;4.83;100.00;101428.91;5057010;28;20472;-68
2024/02/28 05:10:53;;;;;;;3.90;2.50;;;;;;;4.84;100.00;101424.34;5057109;28;20477;-69
2024/02/28 05:13:22;;;;;;;15.40;3.27;;;;;;;4.80;100.00;101430.19;5056564;28;20548;-68
2024/02/28 05:15:50;;;;;;;4.90;1.23;;;;;;;4.85;100.00;101426.78;5056244;28;20786;-68
2024/02/28 05:18:17;;;;;;;3.67;1.23;;;;;;;4.91;100.00;101425.00;5056283;28;20534;-67
2024/02/28 05:20:44;;;;;;;4.23;2.17;;;;;;;4.85;100.00;101432.16;5056407;28;20523;-67
2024/02/28 05:23:10;;;;;;;3.00;1.93;;;;;;;4.89;100.00;101437.84;5056529;28;20540;-68
2024/02/28 05:25:37;;;;;;;4.93;2.20;;;;;;;4.85;100.00;101428.66;5056423;28;20524;-68
2024/02/28 05:28:04;;;;;;;4.63;1.50;;;;;;;4.76;100.00;101429.03;5056035;28;20529;-68
2024/02/28 05:30:30;;;;;;;5.20;1.90;;;;;;;4.73;100.00;101429.50;5056324;28;20464;-68
2024/02/28 05:32:58;;;;;;;2.40;1.40;;;;;;;4.72;100.00;101441.31;5056551;28;20472;-68
2024/02/28 05:35:25;;;;;;;4.17;2.33;;;;;;;4.73;100.00;101434.88;5055871;28;20529;-68
2024/02/28 05:37:55;;;;;;;3.50;2.43;;;;;;;4.76;100.00;101438.97;5056330;28;20556;-68
2024/02/28 05:40:21;;;;;;;6.30;3.23;;;;;;;4.76;100.00;101441.66;5056077;28;20438;-68
2024/02/28 05:42:48;;;;;;;7.30;3.30;;;;;;;4.78;100.00;101443.06;5055952;28;20489;-68
2024/02/28 05:45:15;;;;;;;3.83;1.40;;;;;;;4.75;100.00;101443.53;5055799;28;20470;-68
2024/02/28 05:47:42;;;;;;;5.07;2.17;;;;;;;4.71;100.00;101447.75;5056023;28;20485;-68
2024/02/28 05:50:11;;;;;;;3.20;1.20;;;;;;;4.64;100.00;101451.63;5055483;28;20484;-68
2024/02/28 05:52:37;;;;;;;8.20;1.20;;;;;;;4.65;100.00;101459.44;5055729;28;20450;-68
2024/02/28 05:55:04;;;;;;;2.43;1.07;;;;;;;4.70;100.00;101472.13;5055525;28;20473;-68
2024/02/28 05:57:31;;;;;;;5.03;1.80;;;;;;;4.72;100.00;101478.88;5055762;28;20521;-66
2024/02/28 05:59:58;;;;;;;2.73;1.10;;;;;;;4.69;100.00;101486.59;5055290;28;20473;-68
2024/02/28 06:02:25;;;;;;;3.77;1.80;;;;;;;4.66;100.00;101487.91;5054358;28;20494;-69
2024/02/28 06:04:52;;;;;;;2.57;1.10;;;;;;;4.68;100.00;101484.97;5055438;28;20474;-69
2024/02/28 06:07:20;;;;;;;3.47;1.80;;;;;;;4.65;100.00;101491.63;5055759;28;20956;-70
2024/02/28 06:09:47;;;;;;;2.63;1.07;;;;;;;4.66;100.00;101490.59;5055138;28;20478;-70
2024/02/28 06:12:13;;;;;;;3.00;1.37;;;;;;;4.70;100.00;101488.25;5055420;28;20538;-70
2024/02/28 06:14:40;;;;;;;4.63;1.30;;;;;;;4.66;100.00;101495.13;5055587;28;20527;-70
2024/02/28 06:17:07;;;;;;;1.90;0.80;;;;;;;4.61;100.00;101495.03;5055736;28;20499;-72
2024/02/28 06:19:33;;;;;;;3.83;1.90;;;;;;;4.64;100.00;101495.34;5055438;28;20946;-72
2024/02/28 06:22:00;;;;;;;4.03;1.57;;;;;;;4.68;100.00;101507.25;5055675;28;20486;-72
2024/02/28 06:24:28;;;;;;;3.87;1.70;;;;;;;4.61;100.00;101500.41;5055129;28;20469;-72
2024/02/28 06:26:55;;;;;;;2.47;1.07;;;;;;;4.60;100.00;101499.56;5055103;28;20470;-73
2024/02/28 06:29:22;;;;;;;9.80;2.00;;;;;;;4.63;100.00;101509.03;5055767;28;20438;-72
2024/02/28 06:31:51;;;;;;;2.80;1.57;;;;;;;4.64;100.00;101506.09;5055101;28;20525;-72
2024/02/28 06:34:19;;;;;;;4.90;1.40;;;;;;;4.61;100.00;101500.41;5054905;28;20534;-72
2024/02/28 06:36:45;;;;;;;3.50;1.60;;;;;;;4.62;100.00;101508.22;5055170;28;20442;-72
2024/02/28 06:39:12;;;;;;;11.67;3.33;;;;;;;4.66;100.00;101517.41;5055056;28;20513;-72
2024/02/28 06:41:40;;;;;;;3.27;1.37;;;;;;;4.65;100.00;101521.16;5054978;28;20541;-70
2024/02/28 06:44:07;;;;;;;4.27;2.33;;;;;;;4.68;100.00;101531.38;5055052;28;20517;-72
2024/02/28 06:46:34;;;;;;;4.90;2.23;;;;;;;4.69;100.00;101526.84;5054614;28;20926;-72
2024/02/28 06:49:00;;;;;;;2.63;1.00;;;;;;;4.65;100.00;101529.22;5055277;28;20466;-72
2024/02/28 06:51:27;;;;;;;2.60;1.17;;;;;;;4.59;100.00;101522.09;5054850;28;20924;-73
2024/02/28 06:53:53;;;;;;;5.43;2.07;;;;;;;4.54;100.00;101533.53;5071110;22;20466;-70
2024/02/28 06:56:20;;;;;;;3.73;2.17;;;;;;;4.55;100.00;101532.47;5053475;28;20557;-69
2024/02/28 06:58:48;;;;;;;5.87;1.87;;;;;;;4.48;100.00;101531.81;5054400;28;20442;-69
2024/02/28 07:01:15;;;;;;;7.10;1.63;;;;;;;4.42;100.00;101538.09;5054308;28;20485;-70
2024/02/28 07:03:41;;;;;;;4.30;1.70;;;;;;;4.37;100.00;101535.31;5054997;28;20473;-69
2024/02/28 07:06:09;;;;;;;6.23;2.00;;;;;;;4.33;100.00;101536.84;5054713;28;20492;-69
2024/02/28 07:08:35;;;;;;;6.87;1.77;;;;;;;4.29;100.00;101536.53;5055014;28;20442;-70
2024/02/28 07:11:02;;;;;;;4.37;2.27;;;;;;;4.31;100.00;101538.94;5054547;28;20484;-69
2024/02/28 07:13:29;;;;;;;6.27;2.13;;;;;;;4.23;100.00;101539.31;5053314;28;20463;-68
2024/02/28 07:15:57;;;;;;;3.53;1.33;;;;;;;4.17;100.00;101543.75;5054645;28;20438;-68
2024/02/28 07:18:25;;;;;;;6.40;1.13;;;;;;;4.16;100.00;101539.44;5054400;28;20445;-68
2024/02/28 07:20:52;;;;;;;2.43;1.57;;;;;;;4.16;100.00;101542.13;5054613;28;20445;-68
2024/02/28 07:23:18;;;;;;;3.97;1.70;;;;;;;4.10;100.00;101539.56;5054219;28;20466;-68
2024/02/28 07:25:45;;;;;;;4.07;2.17;;;;;;;4.15;100.00;101540.47;5054656;28;20936;-68
2024/02/28 07:28:11;;;;;;;7.43;3.03;;;;;;;4.13;100.00;101547.94;5054774;28;20521;-68
2024/02/28 07:30:39;;;;;;;2.80;1.37;;;;;;;4.18;100.00;101544.56;5054639;28;20499;-67
2024/02/28 07:33:07;;;;;;;3.03;1.80;;;;;;;4.14;100.00;101538.03;5054112;28;20557;-68
2024/02/28 07:35:44;;;;;;;4.50;2.57;;;;;;;4.10;100.00;101547.59;5054118;28;20955;-68
2024/02/28 07:38:11;;;;;;;8.03;1.87;;;;;;;4.11;100.00;101550.03;5054032;28;20422;-68
2024/02/28 07:40:37;;;;;;;5.10;2.40;;;;;;;4.11;100.00;101549.22;5053959;28;20442;-67
2024/02/28 07:43:04;;;;;;;8.40;1.80;;;;;;;4.13;100.00;101553.31;5054197;28;20494;-67
2024/02/28 07:45:31;;;;;;;3.90;1.70;;;;;;;4.01;100.00;101557.84;5054227;28;20449;-67
2024/02/28 07:47:57;;;;;;;2.30;0.87;;;;;;;3.98;100.00;101559.13;5053828;28;20484;-67
2024/02/28 07:50:25;;;;;;;4.53;2.13;;;;;;;4.08;100.00;101555.88;5054095;28;20967;-68
2024/02/28 07:52:55;;;;;;;3.27;1.77;;;;;;;4.14;100.00;101568.34;5054529;28;20964;-67
2024/02/28 07:55:22;;;;;;;5.00;2.10;;;;;;;4.15;100.00;101580.69;5054681;28;20518;-69
2024/02/28 07:57:51;;;;;;;5.13;2.27;;;;;;;4.10;100.00;101577.09;5054531;28;20435;-68
2024/02/28 08:00:19;;;;;;;6.07;3.67;;;;;;;4.11;100.00;101582.19;5053917;28;20851;-67
2024/02/28 08:02:46;;;;;;;5.90;2.53;;;;;;;4.13;100.00;101574.75;5053589;28;20488;-67
2024/02/28 08:05:12;;;;;;;3.83;1.50;;;;;;;4.18;100.00;101576.75;5054078;28;20513;-67
2024/02/28 08:07:40;;;;;;;2.70;1.37;;;;;;;4.17;100.00;101581.28;5053345;28;20533;-67
2024/02/28 08:10:09;;;;;;;6.87;2.33;;;;;;;4.19;100.00;101587.22;5053431;28;20914;-67
2024/02/28 08:12:36;;;;;;;6.83;2.40;;;;;;;4.15;100.00;101591.41;5054054;28;20805;-67
2024/02/28 08:15:03;;;;;;;4.90;3.07;;;;;;;4.14;100.00;101597.84;5053163;28;20442;-67
2024/02/28 08:17:30;;;;;;;6.10;3.00;;;;;;;4.02;100.00;101599.69;5054043;28;20489;-68
2024/02/28 08:19:56;;;;;;;6.70;2.03;;;;;;;3.96;100.00;101604.13;5053236;28;20498;-68
2024/02/28 08:22:24;;;;;;;2.90;1.43;;;;;;;3.93;100.00;101599.22;5053299;28;20565;-67
2024/02/28 08:24:53;;;;;;;14.43;1.67;;;;;;;3.98;100.00;101606.56;5053295;28;20447;-67
2024/02/28 08:27:20;;;;;;;2.57;1.10;;;;;;;4.04;100.00;101597.59;5053458;28;20474;-68
2024/02/28 08:29:47;;;;;;;4.30;2.33;;;;;;;4.03;100.00;101595.97;5052997;28;20446;-67
2024/02/28 08:32:14;;;;;;;3.73;2.50;;;;;;;4.02;100.00;101608.53;5053328;28;20458;-67
2024/02/28 08:34:44;;;;;;;4.07;1.77;;;;;;;3.97;100.00;101613.78;5053763;28;20525;-67
2024/02/28 08:37:11;;;;;;;2.20;0.90;;;;;;;4.01;100.00;101619.50;5053815;28;20448;-67
2024/02/28 08:39:37;;;;;;;2.63;1.23;;;;;;;4.13;100.00;101611.47;5053208;28;20525;-67
2024/02/28 08:42:06;;;;;;;3.50;1.93;;;;;;;4.16;100.00;101606.47;5052803;28;21019;-68
2024/02/28 08:44:33;;;;;;;4.90;2.00;;;;;;;4.26;100.00;101608.56;5053511;28;20454;-68
2024/02/28 08:46:59;;;;;;;2.67;1.23;;;;;;;4.35;100.00;101603.66;5052777;28;20450;-67
2024/02/28 08:49:26;;;;;;;3.17;1.80;;;;;;;4.41;100.00;101597.34;5053042;28;20459;-68
2024/02/28 08:51:53;;;;;;;7.93;4.07;;;;;;;4.47;100.00;101586.53;5053144;28;20492;-68
2024/02/28 08:54:19;;;;;;;5.00;2.47;;;;;;;4.45;100.00;101588.59;5053106;28;20463;-67
2024/02/28 08:56:46;;;;;;;3.67;2.13;;;;;;;4.50;100.00;101598.63;5053787;28;20473;-67
2024/02/28 08:59:14;;;;;;;3.60;1.20;;;;;;;4.51;100.00;101609.13;5053195;28;20434;-68
2024/02/28 09:01:41;;;;;;;6.57;2.50;;;;;;;4.51;100.00;101603.75;5052676;28;20474;-68
2024/02/28 09:04:08;;;;;;;5.00;2.50;;;;;;;4.43;100.00;101606.00;5053497;28;20504;-68
2024/02/28 09:06:34;;;;;;;9.37;2.00;;;;;;;4.39;100.00;101605.66;5053290;28;20848;-67
2024/02/28 09:09:01;;;;;;;5.63;2.13;;;;;;;4.38;100.00;101601.31;5053054;28;20465;-67
2024/02/28 09:11:27;;;;;;;5.77;2.03;;;;;;;4.36;100.00;101599.94;5053154;28;20442;-67
2024/02/28 09:13:54;;;;;;;5.20;2.73;;;;;;;4.36;100.00;101602.63;5053574;28;20539;-67
2024/02/28 09:16:22;;;;;;;5.23;3.10;;;;;;;4.37;100.00;101612.28;5052974;28;20850;-67
2024/02/28 09:18:49;;;;;;;3.40;2.03;;;;;;;4.44;100.00;101613.00;5052844;28;20485;-67
2024/02/28 09:21:16;;;;;;;4.50;1.63;;;;;;;4.41;100.00;101603.53;5052465;28;20442;-67
2024/02/28 09:23:43;;;;;;;6.60;2.63;;;;;;;4.49;100.00;101611.22;5052723;28;20458;-67
2024/02/28 09:26:10;;;;;;;4.57;2.20;;;;;;;4.52;100.00;101609.97;5052526;28;20473;-68
2024/02/28 09:28:37;;;;;;;8.00;2.87;;;;;;;4.52;100.00;101613.44;5052917;28;20537;-67
2024/02/28 09:31:04;;;;;;;3.83;1.87;;;;;;;4.48;100.00;101619.53;5052467;28;20997;-67
2024/02/28 09:33:32;;;;;;;4.53;2.67;;;;;;;4.47;100.00;101625.91;5053081;28;20458;-67
2024/02/28 09:35:59;;;;;;;18.87;4.00;;;;;;;4.48;100.00;101627.56;5053077;28;20521;-67
2024/02/28 09:38:25;;;;;;;5.17;2.57;;;;;;;4.48;100.00;101624.88;5056228;28;20976;-67
2024/02/28 09:40:52;;;;;;;5.47;2.20;;;;;;;4.47;100.00;101624.06;5056289;28;20469;-67
2024/02/28 09:43:26;;;;;;;5.10;3.10;;;;;;;4.51;100.00;101627.06;5056254;28;20489;-67
2024/02/28 09:45:57;;;;;;;9.33;2.97;;;;;;;4.51;100.00;101627.06;5056164;28;20426;-67
2024/02/28 09:48:24;;;;;;;11.17;2.97;;;;;;;4.52;100.00;101628.75;5055855;28;20987;-67
2024/02/28 09:50:52;;;;;;;8.30;2.80;;;;;;;4.61;100.00;101624.63;5056691;28;20438;-67
2024/02/28 09:53:19;;;;;;;3.50;1.63;;;;;;;4.66;100.00;101631.97;5056085;28;20482;-67
2024/02/28 09:55:46;;;;;;;5.20;2.43;;;;;;;4.63;99.81;101633.25;5055614;28;20461;-67
2024/02/28 09:58:13;;;;;;;3.80;1.87;;;;;;;4.66;99.23;101630.09;5056323;28;20882;-67
2024/02/28 10:00:43;;;;;;;9.10;3.23;;;;;;;4.70;98.18;101642.00;5055743;28;20438;-67
2024/02/28 10:03:12;;;;;;;4.20;2.80;;;;;;;4.71;97.31;101645.50;5055770;28;20489;-67
2024/02/28 10:05:39;;;;;;;4.57;2.03;;;;;;;4.65;96.57;101641.91;5055484;28;20444;-67
2024/02/28 10:08:09;;;;;;;4.13;2.23;;;;;;;4.52;97.31;101639.47;5056039;28;20473;-67
2024/02/28 10:10:38;;;;;;;7.00;2.40;;;;;;;4.54;97.84;101656.13;5055620;28;20523;-67
2024/02/28 10:13:04;;;;;;;2.57;1.20;;;;;;;4.61;96.40;101656.03;5055858;28;20464;-68
2024/02/28 10:15:31;;;;;;;5.23;2.20;;;;;;;4.63;95.91;101649.34;5055583;28;20448;-67
2024/02/28 10:17:58;;;;;;;5.30;2.40;;;;;;;4.64;95.64;101659.03;5055549;28;20444;-67
2024/02/28 10:20:24;;;;;;;4.87;2.73;;;;;;;4.66;95.80;101656.13;5056149;28;20474;-67
2024/02/28 10:22:53;;;;;;;3.60;2.03;;;;;;;4.63;95.33;101660.09;5055559;28;20486;-68
2024/02/28 10:25:22;;;;;;;4.30;2.30;;;;;;;4.66;95.28;101665.00;5055461;28;20434;-67
2024/02/28 10:27:49;;;;;;;4.30;2.23;;;;;;;4.65;94.44;101671.41;5055706;28;20813;-67
2024/02/28 10:30:16;;;;;;;4.83;2.17;;;;;;;4.59;94.95;101666.97;5055416;28;20434;-67
2024/02/28 10:32:49;;;;;;;7.43;3.50;;;;;;;4.66;94.23;101673.03;5055323;28;20459;-67
2024/02/28 10:35:18;;;;;;;5.00;2.57;;;;;;;4.67;93.07;101665.81;5055445;28;20435;-68
2024/02/28 10:37:45;;;;;;;3.70;2.00;;;;;;;4.70;92.84;101678.75;5055287;28;20464;-67
2024/02/28 10:40:14;;;;;;;8.10;2.90;;;;;;;4.67;92.27;101679.22;5055679;28;20805;-67
2024/02/28 10:42:43;;;;;;;12.83;3.07;;;;;;;4.68;93.01;101678.16;5055382;28;20485;-67
2024/02/28 10:45:11;;;;;;;9.00;3.07;;;;;;;4.76;92.80;101684.00;5055326;28;20524;-67
2024/02/28 10:47:39;;;;;;;5.63;2.80;;;;;;;4.66;91.91;101682.97;5054536;28;20930;-67
2024/02/28 10:50:07;;;;;;;8.80;3.60;;;;;;;4.72;91.30;101693.56;5055333;28;20445;-67
2024/02/28 10:52:35;;;;;;;5.17;2.00;;;;;;;4.79;89.59;101691.59;5054869;28;20493;-67
2024/02/28 10:55:03;;;;;;;6.00;2.10;;;;;;;4.78;90.30;101683.75;5054458;28;20930;-67
2024/02/28 10:57:30;;;;;;;4.60;2.20;;;;;;;4.84;89.08;101693.56;5054840;28;20444;-67
2024/02/28 11:00:00;;;;;;;3.43;1.40;;;;;;;4.79;88.29;101690.78;5054716;28;20480;-67
2024/02/28 11:02:28;;;;;;;5.43;2.10;;;;;;;4.81;87.77;101689.47;5055051;28;20496;-67
2024/02/28 11:04:56;;;;;;;7.80;3.07;;;;;;;4.74;88.52;101696.84;5054695;28;20934;-67
2024/02/28 11:07:23;;;;;;;2.77;1.60;;;;;;;4.73;87.89;101689.81;5054301;28;20450;-67
2024/02/28 11:09:55;;;;;;;4.60;2.27;;;;;;;4.71;87.53;101689.25;5054262;28;20438;-67
2024/02/28 11:12:28;;;;;;;4.23;1.40;;;;;;;4.76;87.17;101691.25;5054201;28;21040;-67
2024/02/28 11:15:01;;;;;;;3.30;2.30;;;;;;;4.68;87.13;101684.34;5054235;28;20811;-67
2024/02/28 11:17:29;;;;;;;3.80;1.50;;;;;;;4.71;87.46;101689.25;5054977;28;20437;-67
2024/02/28 11:19:56;;;;;;;5.53;2.67;;;;;;;4.72;87.78;101685.50;5054210;28;21006;-67
2024/02/28 11:22:22;;;;;;;3.33;1.37;;;;;;;4.76;86.95;101686.69;5054248;28;20492;-67
2024/02/28 11:24:49;;;;;;;4.90;1.90;;;;;;;4.79;86.87;101683.53;5054319;28;20853;-67
2024/02/28 11:27:16;;;;;;;5.03;2.27;;;;;;;4.77;86.72;101696.34;5054713;28;20446;-67